Météo Cheval Rigon

 

Relevés d'aujourd'hui



 

15/8/20
Time         Wind Dir   Wind Spd  Wind Gust   Humidity       Temp   Tot Rain Wind Chill  Dew Point   Barom SL Humidity R Temp Out R Tot Rain R   WindCh R   Dew Pt R SL Barom R Temp Out H Temp Out L  DailyRain   HourRain   24HrRain   RainRate  MonthRain
                          km/hr      km/hr          %         C         mm         C         C         mb       %/hr      C/hr      mm/hr      C/hr      C/hr      mm/hr         C         C         mm         mm         mm      mm/hr         mm
0:00                5          0          0         85       17.3     403.20       17.3       14.7    1015.38        4.9      -1.02      0.000      -1.02      -0.04      0.192       17.3       17.3       0.00       0.00       3.80      0.000       8.60
0:15                5          0          0         87       17.0     403.20       17.0       14.8    1015.38        5.6      -1.03      0.000      -1.03       0.06      0.142       17.3       17.0       0.00       0.00       3.80      0.000       8.60
0:30               49          0          2         88       16.9     403.20       16.9       14.9    1015.38        5.3      -0.84      0.000      -0.84       0.18      0.114       17.3       16.8       0.00       0.00       3.80      0.000       8.60
0:45               49          0          2         89       16.9     403.20       16.9       15.1    1015.35        5.0      -0.65      0.000      -0.65       0.29      0.055       17.3       16.8       0.00       0.00       3.80      0.000       8.60
1:00               72          0          2         89       16.9     403.20       16.9       15.1    1015.18        3.9      -0.55      0.000      -0.55       0.18     -0.098       17.3       16.8       0.00       0.00       3.80      0.000       8.60
1:15               73          0          2         90       16.8     403.20       16.8       15.1    1015.15        4.0      -0.52      0.000      -0.52       0.22     -0.113       17.3       16.8       0.00       0.00       3.80      0.000       8.60
1:30               73          0          0         90       16.7     403.20       16.7       15.0    1015.01        3.1      -0.51      0.000      -0.51       0.07     -0.215       17.3       16.7       0.00       0.00       3.80      0.000       8.60
1:45               73          0          0         90       16.4     403.20       16.4       14.7    1014.98        2.5      -0.64      0.000      -0.64      -0.18     -0.192       17.3       16.4       0.00       0.00       3.80      0.000       8.60
2:00               73          0          0         90       16.2     403.20       16.2       14.6    1014.94        1.9      -0.65      0.000      -0.65      -0.29     -0.186       17.3       16.2       0.00       0.00       3.60      0.000       8.60
2:15               73          0          0         91       15.9     403.20       15.9       14.5    1014.94        2.4      -0.75      0.000      -0.75      -0.31     -0.141       17.3       15.9       0.00       0.00       3.60      0.000       8.60
2:30               73          0          0         92       15.9     403.20       15.9       14.6    1014.88        2.7      -0.63      0.000      -0.63      -0.15     -0.166       17.3       15.9       0.00       0.00       3.60      0.000       8.60
2:45               73          0          0         92       15.8     403.20       15.8       14.5    1014.77        2.1      -0.59      0.000      -0.59      -0.22     -0.219       17.3       15.8       0.00       0.00       3.60      0.000       8.60
3:00               73          0          0         92       15.7     403.20       15.7       14.4    1014.84        1.6      -0.51      0.000      -0.51      -0.22     -0.119       17.3       15.7       0.00       0.00       3.60      0.000       8.60
3:15               72          0          0         93       15.6     403.20       15.6       14.5    1014.91        2.2      -0.50      0.000      -0.50      -0.12     -0.039       17.3       15.6       0.00       0.00       3.60      0.000       8.60
3:30               73          0          0         93       15.7     403.20       15.7       14.5    1014.98        1.7      -0.34      0.000      -0.34      -0.04      0.036       17.3       15.6       0.00       0.00       3.60      0.000       8.60
3:45               73          0          0         93       15.7     403.20       15.7       14.6    1014.88        1.3      -0.21      0.000      -0.21       0.02     -0.057       17.3       15.6       0.00       0.00       3.60      0.000       8.60
4:00               73          0          0         94       15.7     403.20       15.7       14.8    1014.77        1.9      -0.16      0.000      -0.16       0.16     -0.136       17.3       15.6       0.00       0.00       3.60      0.000       8.60
4:15               73          0          0         93       15.7     403.20       15.7       14.6    1014.74        0.5      -0.14      0.000      -0.14      -0.04     -0.134       17.3       15.6       0.00       0.00       3.60      0.000       8.60
4:30               73          0          2         94       15.6     403.20       15.6       14.6    1014.50        1.4      -0.25      0.000      -0.25      -0.01     -0.313       17.3       15.6       0.00       0.00       3.40      0.000       8.60
4:45               89          0          2         93       15.6     403.20       15.6       14.5    1014.54        0.1      -0.15      0.000      -0.15      -0.12     -0.217       17.3       15.6       0.00       0.00       2.20      0.000       8.60
5:00               89          0          0         93       15.5     403.20       15.5       14.4    1014.44        0.1      -0.21      0.000      -0.21      -0.19     -0.265       17.3       15.5       0.00       0.00       1.80      0.000       8.60
5:15               89          0          2         94       15.4     403.20       15.4       14.4    1014.44        1.1      -0.26      0.000      -0.26      -0.08     -0.201       17.3       15.4       0.00       0.00       1.80      0.000       8.60
5:30               89          0          0         94       15.2     403.20       15.2       14.3    1014.33        1.0      -0.35      0.000      -0.35      -0.18     -0.246       17.3       15.2       0.00       0.00       1.60      0.000       8.60
5:45              109          0          2         94       15.1     403.20       15.1       14.1    1014.30        0.8      -0.42      0.000      -0.42      -0.29     -0.220       17.3       15.1       0.00       0.00       1.60      0.000       8.60
6:00              114          0          2         94       15.0     403.20       15.0       14.0    1014.33        0.6      -0.38      0.000      -0.38      -0.28     -0.150       17.3       15.0       0.00       0.00       1.20      0.000       8.60
6:15              114          0          0         95       14.9     403.20       14.9       14.1    1014.27        1.5      -0.38      0.000      -0.38      -0.14     -0.168       17.3       14.8       0.00       0.00       1.20      0.000       8.60
6:30              114          0          2         94       14.6     403.20       14.6       13.7    1014.30        0.3      -0.56      0.000      -0.56      -0.50     -0.096       17.3       14.6       0.00       0.00       1.20      0.000       8.60
6:45              114          0          0         95       14.7     403.20       14.7       13.9    1014.27        1.1      -0.38      0.000      -0.38      -0.21     -0.106       17.3       14.6       0.00       0.00       1.20      0.000       8.60
7:00              114          0          0         96       14.7     403.20       14.7       14.1    1014.23        1.8      -0.23      0.000      -0.23       0.06     -0.099       17.3       14.6       0.00       0.00       1.20      0.000       8.60
7:15              112          0          2         95       14.8     403.20       14.8       14.0    1014.27        0.6      -0.09      0.000      -0.09       0.00     -0.044       17.3       14.6       0.00       0.00       1.20      0.000       8.60
7:30              123          0          0         95       14.7     403.20       14.7       13.9    1014.27        0.4      -0.17      0.000      -0.17      -0.10     -0.038       17.3       14.6       0.00       0.00       1.00      0.000       8.60
7:45              123          0          0         96       14.9     403.20       14.9       14.3    1014.23        1.2       0.07      0.000       0.07       0.27     -0.058       17.3       14.6       0.00       0.00       1.00      0.000       8.60
8:00              123          0          0         96       15.4     403.20       15.4       14.8    1014.27        0.9       0.49      0.000       0.49       0.64     -0.019       17.3       14.6       0.00       0.00       1.00      0.000       8.60
8:15              123          0          0         96       15.9     403.20       15.9       15.3    1014.23        0.7       0.84      0.000       0.84       0.95     -0.048       17.3       14.6       0.00       0.00       1.00      0.000       8.60
8:30              123          0          0         96       16.5     403.20       16.5       15.9    1014.23        0.6       1.16      0.000       1.16       1.25     -0.038       17.3       14.6       0.00       0.00       1.00      0.000       8.60
8:45              123          0          0         95       17.3     403.20       17.3       16.5    1014.20       -0.5       1.58      0.000       1.58       1.48     -0.067       17.3       14.6       0.00       0.00       1.00      0.000       8.60
9:00              123          0          0         94       17.6     403.20       17.6       16.6    1014.40       -1.3       1.47      0.000       1.47       1.25      0.129       17.6       14.6       0.00       0.00       1.00      0.000       8.60
9:15              123          0          0         93       17.9     403.20       17.9       16.7    1014.37       -1.9       1.44      0.000       1.44       1.11      0.077       17.9       14.6       0.00       0.00       1.00      0.000       8.60
9:30              123          0          0         91       18.2     403.20       18.2       16.7    1014.23       -3.2       1.42      0.000       1.42       0.86     -0.058       18.2       14.6       0.00       0.00       1.00      0.000       8.60
9:45              123          0          0         89       18.8     403.20       18.8       17.0    1014.16       -4.3       1.65      0.000       1.65       0.89     -0.101       18.8       14.6       0.00       0.00       1.00      0.000       8.60
10:00             313          0          0         87       19.3     403.20       19.3       17.1    1014.13       -5.1       1.69      0.000       1.69       0.78     -0.114       19.3       14.6       0.00       0.00       1.00      0.000       8.60
10:15             327          0          0         85       19.7     403.20       19.7       17.1    1014.20       -5.8       1.66      0.000       1.66       0.61     -0.024       19.7       14.6       0.00       0.00       1.00      0.000       8.60
10:30             244          2          5         84       20.1     403.20       20.1       17.3    1014.23       -5.5       1.69      0.000       1.69       0.69      0.007       20.1       14.6       0.00       0.00       1.00      0.000       8.60
10:45             330          0          3         83       20.6     403.20       20.6       17.6    1013.99       -5.0       1.71      0.000       1.71       0.78     -0.196       20.6       14.6       0.00       0.00       1.00      0.000       8.60
11:00             349          0          5         80       21.2     403.20       21.2       17.6    1014.03       -6.4       1.87      0.000       1.87       0.64     -0.126       21.2       14.6       0.00       0.00       1.00      0.000       8.60
11:15              90          0          2         79       21.9     403.20       21.9       18.1    1013.96       -5.8       2.10      0.000       2.10       0.97     -0.166       21.9       14.6       0.00       0.00       1.00      0.000       8.60
11:30              67          0          2         72       22.8     403.20       22.8       17.5    1014.03      -10.6       2.45      0.000       2.45       0.25     -0.068       22.8       14.6       0.00       0.00       1.00      0.000       8.60
11:45              45          3          5         68       23.9     403.20       23.9       17.6    1013.93      -12.1       2.87      0.000       2.87       0.24     -0.137       23.9       14.6       0.00       0.00       0.80      0.000       8.60
12:00              44          0          3         67       24.6     403.20       24.6       18.0    1013.76      -10.4       2.81      0.000       2.81       0.50     -0.254       24.6       14.6       0.00       0.00       0.80      0.000       8.60
12:15              44          0          2         66       24.4     403.20       24.4       17.7    1013.69       -9.0       2.09      0.000       2.09       0.10     -0.260       24.6       14.6       0.00       0.00       0.80      0.000       8.60
12:30             350          0          3         63       25.1     403.20       25.1       17.6    1013.55      -10.0       2.24      0.000       2.24      -0.08     -0.324       25.1       14.6       0.00       0.00       0.40      0.000       8.60
12:45             323          0          3         61       25.2     403.20       25.2       17.2    1013.52       -9.3       1.80      0.000       1.80      -0.40     -0.289       25.4       14.6       0.00       0.00       0.00      0.000       8.60
13:00             292          0          5         61       25.6     403.20       25.6       17.5    1013.35       -7.3       1.78      0.000       1.78       0.03     -0.368       25.6       14.6       0.00       0.00       0.00      0.000       8.60
13:15             264          2          5         56       26.3     403.20       26.3       16.9    1013.25      -10.2       1.99      0.000       1.99      -0.62     -0.372       26.4       14.6       0.00       0.00       0.00      0.000       8.60
13:30               5          0          3         58       26.3     403.20       26.3       17.4    1013.08       -6.2       1.56      0.000       1.56       0.00     -0.434       26.4       14.6       0.00       0.00       0.00      0.000       8.60
13:45              12          0          5         55       26.9     403.20       26.9       17.1    1012.95       -7.6       1.71      0.000       1.71      -0.32     -0.455       26.9       14.6       0.00       0.00       0.00      0.000       8.60
14:00             340          0          3         56       26.2     403.20       26.2       16.8    1012.84       -4.8       0.75      0.000       0.75      -0.46     -0.445       26.9       14.6       0.00       0.00       0.00      0.000       8.60
14:15              16          0          3         53       27.2     403.20       27.2       16.8    1012.64       -6.7       1.48      0.000       1.48      -0.38     -0.517       27.2       14.6       0.00       0.00       0.00      0.000       8.60
14:30             304          2          5         54       26.6     403.20       26.6       16.5    1012.64       -4.2       0.59      0.000       0.59      -0.52     -0.400       27.3       14.6       0.00       0.00       0.00      0.000       8.60
14:45             117          0          5         49       28.2     403.20       28.2       16.5    1012.54       -8.1       1.85      0.000       1.85      -0.59     -0.389       28.2       14.6       0.00       0.00       0.00      0.000       8.60
15:00              95          2          3         45       29.3     403.20       29.3       16.2    1012.40      -10.1       2.47      0.000       2.47      -0.79     -0.418       29.3       14.6       0.00       0.00       0.00      0.000       8.60
15:15             318          0          3         44       30.0     403.20       30.0       16.4    1012.20       -9.0       2.50      0.000       2.50      -0.51     -0.510       30.0       14.6       0.00       0.00       0.00      0.000       8.60
15:30             110          0          3         44       30.4     403.20       30.4       16.8    1012.00       -7.1       2.34      0.000       2.34      -0.07     -0.573       30.4       14.6       0.00       0.00       0.00      0.000       8.60
15:45              54          2          3         42       30.8     403.20       30.8       16.4    1011.79       -7.6       2.18      0.000       2.18      -0.49     -0.633       30.8       14.6       0.00       0.00       0.00      0.000       8.60
16:00              19          3          5         43       30.6     403.20       30.6       16.6    1011.69       -4.9       1.50      0.000       1.50      -0.17     -0.587       30.8       14.6       0.00       0.00       0.00      0.000       8.60
16:15              16          0          5         44       30.7     403.20       30.7       17.1    1011.56       -3.0       1.25      0.000       1.25       0.25     -0.577       30.8       14.6       0.00       0.00       0.00      0.000       8.60
16:30             348          0          8         41       30.4     403.20       30.4       15.7    1011.29       -5.3       0.72      0.000       0.72      -1.13     -0.687       30.8       14.6       0.00       0.00       0.00      0.000       8.60
16:45             335          0          3         41       30.5     403.20       30.5       15.8    1011.15       -4.3       0.66      0.000       0.66      -0.86     -0.658       30.8       14.6       0.00       0.00       0.00      0.000       8.60
17:00             240          3          3         40       30.7     403.20       30.7       15.5    1011.01       -4.1       0.65      0.000       0.65      -0.84     -0.636       30.8       14.6       0.00       0.00       0.00      0.000       8.60
17:15              75          0          5         42       30.3     403.20       30.3       16.0    1010.78       -1.5       0.20      0.000       0.20      -0.27     -0.703       30.8       14.6       0.00       0.00       0.00      0.000       8.60
17:30              82          0          2         41       30.9     403.20       30.9       16.2    1010.64       -2.1       0.73      0.000       0.73      -0.06     -0.654       30.9       14.6       0.00       0.00       0.00      0.000       8.60
17:45              87          0          3         40       31.6     403.20       31.6       16.3    1010.51       -2.5       1.09      0.000       1.09       0.09     -0.628       31.6       14.6       0.00       0.00       0.00      0.000       8.60
18:00              87          0          2         42       30.8     403.20       30.8       16.4    1010.51        0.1       0.17      0.000       0.17       0.23     -0.496       31.6       14.6       0.00       0.00       0.00      0.000       8.60
18:15              87          3          3         42       29.9     403.20       29.9       15.6    1010.41       -0.2      -0.64      0.000      -0.64      -0.60     -0.477       31.6       14.6       0.00       0.00       0.00      0.000       8.60
18:30              86          0          3         44       30.1     403.20       30.1       16.5    1010.24        1.6      -0.37      0.000      -0.37       0.28     -0.524       31.6       14.6       0.00       0.00       0.00      0.000       8.60
18:45              86          0          0         44       30.1     403.20       30.1       16.5    1010.07        1.5      -0.33      0.000      -0.33       0.30     -0.565       31.6       14.6       0.00       0.00       0.00      0.000       8.60
19:00              86          0          0         43       29.4     403.20       29.4       15.6    1010.07        0.2      -0.79      0.000      -0.79      -0.60     -0.442       31.6       14.6       0.00       0.00       0.00      0.000       8.60
19:15              86          3          3         42       29.2     403.20       29.2       15.0    1009.90       -1.2      -0.84      0.000      -0.84      -1.16     -0.506       31.6       14.6       0.00       0.00       0.00      0.000       8.60
19:30             312          2          3         44       29.3     403.20       29.3       15.8    1009.90        0.8      -0.57      0.000      -0.57      -0.22     -0.403       31.6       14.6       0.00       0.00       0.00      0.000       8.60
19:45             314          0          3         45       28.8     403.20       28.8       15.7    1009.83        1.3      -0.85      0.000      -0.85      -0.28     -0.370       31.6       14.6       0.00       0.00       0.00      0.000       8.60
20:00             345          0          5         46       28.2     403.20       28.2       15.5    1009.80        1.9      -1.26      0.000      -1.26      -0.46     -0.313       31.6       14.6       0.00       0.00       0.00      0.000       8.60
20:15             345          0          2         50       27.3     403.20       27.3       16.0    1009.83        5.0      -1.76      0.000      -1.76       0.08     -0.215       31.6       14.6       0.00       0.00       0.00      0.000       8.60
20:30             345          0          3         51       26.2     403.20       26.2       15.3    1009.73        5.1      -2.30      0.000      -2.30      -0.41     -0.256       31.6       14.6       0.00       0.00       0.00      0.000       8.60
20:45             345          0          2         52       25.1     403.20       25.1       14.6    1009.76        5.0      -2.77      0.000      -2.77      -0.94     -0.162       31.6       14.6       0.00       0.00       0.00      0.000       8.60
21:00              36          3          3         59       24.0     403.20       24.0       15.5    1009.80       10.1      -3.14      0.000      -3.14       0.12     -0.098       31.6       14.6       0.00       0.00       0.00      0.000       8.60
21:15              92          2          5         62       23.1     403.20       23.1       15.4    1009.76       10.3      -3.24      0.000      -3.24      -0.03     -0.103       31.6       14.6       0.00       0.00       0.00      0.000       8.60
21:30             102          0          5         62       22.8     403.20       22.8       15.2    1010.00        7.9      -2.76      0.000      -2.76      -0.28      0.119       31.6       14.6       0.00       0.00       0.00      0.000       8.60
21:45              89          2          3         64       22.5     403.20       22.5       15.4    1010.13        7.9      -2.45      0.000      -2.45      -0.07      0.215       31.6       14.6       0.00       0.00       0.00      0.000       8.60
22:00             100          2          5         64       21.9     403.20       21.9       14.8    1010.10        6.1      -2.39      0.000      -2.39      -0.53      0.135       31.6       14.6       0.00       0.00       0.00      0.000       8.60

 


 

 

 

Retour accueil